createdAt,value
2023-01-30T00:00:02.314Z,47.33
2023-01-30T00:02:29.352Z,36.17
2023-01-30T00:04:56.381Z,40.55
2023-01-30T00:07:23.407Z,29.08
2023-01-30T00:09:50.454Z,37.22
2023-01-30T00:12:17.428Z,41.30
2023-01-30T00:14:44.525Z,28.60
2023-01-30T00:17:11.508Z,29.50
2023-01-30T00:19:38.496Z,37.42
2023-01-30T00:22:05.571Z,27.15
2023-01-30T00:24:32.719Z,23.33
2023-01-30T00:26:59.754Z,22.23
2023-01-30T00:29:26.727Z,20.70
2023-01-30T00:31:53.810Z,20.52
2023-01-30T00:34:20.801Z,24.67
2023-01-30T00:36:53.351Z,23.83
2023-01-30T00:39:29.625Z,20.08
2023-01-30T00:42:15.218Z,19.50
2023-01-30T00:45:01.078Z,16.83
2023-01-30T00:47:28.105Z,23.52
2023-01-30T00:49:55.092Z,20.83
2023-01-30T00:52:22.171Z,23.35
2023-01-30T00:54:51.510Z,20.00
2023-01-30T00:57:18.484Z,22.45
2023-01-30T00:59:45.521Z,15.13
2023-01-30T01:02:12.583Z,21.30
2023-01-30T01:04:45.670Z,15.98
2023-01-30T01:07:14.281Z,25.23
2023-01-30T01:09:41.786Z,19.13
2023-01-30T01:12:09.381Z,21.42
2023-01-30T01:14:36.430Z,21.65
2023-01-30T01:17:03.658Z,18.83
2023-01-30T01:19:30.646Z,21.73
2023-01-30T01:21:57.607Z,19.25
2023-01-30T01:24:24.562Z,16.02
2023-01-30T01:26:51.515Z,16.42
2023-01-30T01:29:18.592Z,16.17
2023-01-30T01:31:46.486Z,13.63
2023-01-30T01:34:13.583Z,19.80
2023-01-30T01:36:56.644Z,16.38
2023-01-30T01:39:24.064Z,19.90
2023-01-30T01:41:51.367Z,13.48
2023-01-30T01:44:18.494Z,15.45
2023-01-30T01:47:08.275Z,15.82
2023-01-30T01:49:37.041Z,17.10
2023-01-30T01:52:11.615Z,14.10
2023-01-30T01:54:47.295Z,13.38
2023-01-30T01:57:43.251Z,18.02
2023-01-30T02:00:12.155Z,16.55
2023-01-30T02:02:42.613Z,13.73
2023-01-30T02:05:11.446Z,22.08
2023-01-30T02:07:46.120Z,16.98
2023-01-30T02:10:23.274Z,16.58
2023-01-30T02:12:51.825Z,17.95
2023-01-30T02:15:20.217Z,12.55
2023-01-30T02:17:47.554Z,15.85
2023-01-30T02:20:23.480Z,16.17
2023-01-30T02:23:27.920Z,18.20
2023-01-30T02:26:22.391Z,16.70
2023-01-30T02:29:00.488Z,16.80
2023-01-30T02:31:46.538Z,19.83
2023-01-30T02:34:28.617Z,16.50
2023-01-30T02:37:07.510Z,19.95
2023-01-30T02:39:55.421Z,19.83
2023-01-30T02:42:39.374Z,18.05
2023-01-30T02:45:54.148Z,17.13
2023-01-30T02:48:30.770Z,19.50
2023-01-30T02:51:09.951Z,19.52
2023-01-30T02:53:37.570Z,18.27
2023-01-30T02:56:05.357Z,20.42
2023-01-30T02:58:42.628Z,15.93
2023-01-30T03:01:34.556Z,17.27
2023-01-30T03:04:01.506Z,19.10
2023-01-30T03:07:16.951Z,20.92
2023-01-30T03:10:09.944Z,17.40
2023-01-30T03:12:52.107Z,19.23
2023-01-30T03:15:38.847Z,23.05
2023-01-30T03:18:06.454Z,17.63
2023-01-30T03:20:38.815Z,19.20
2023-01-30T03:23:06.128Z,24.10
2023-01-30T03:25:35.496Z,20.52
2023-01-30T03:28:04.930Z,23.33
2023-01-30T03:30:32.153Z,21.80
2023-01-30T03:32:59.174Z,18.75
2023-01-30T03:35:26.272Z,17.75
2023-01-30T03:37:56.648Z,19.20
2023-01-30T03:40:23.684Z,18.75
2023-01-30T03:42:50.724Z,20.08
2023-01-30T03:45:17.941Z,21.15
2023-01-30T03:47:45.205Z,20.40
2023-01-30T03:50:12.456Z,20.88
2023-01-30T03:52:39.497Z,23.40
2023-01-30T03:55:07.081Z,17.00
2023-01-30T03:57:34.042Z,19.15
2023-01-30T04:00:01.125Z,16.92
2023-01-30T04:02:28.147Z,17.77
2023-01-30T04:04:55.158Z,18.77
2023-01-30T04:07:22.247Z,17.73
2023-01-30T04:09:49.331Z,17.20
2023-01-30T04:12:16.390Z,15.00
2023-01-30T04:14:43.358Z,20.75
2023-01-30T04:17:10.393Z,20.33
2023-01-30T04:19:37.470Z,16.13
2023-01-30T04:22:04.536Z,16.90
2023-01-30T04:24:31.567Z,21.40
2023-01-30T04:26:58.567Z,14.18
2023-01-30T04:29:25.654Z,15.32
2023-01-30T04:31:52.637Z,20.45
2023-01-30T04:34:19.634Z,15.50
2023-01-30T04:36:46.639Z,17.27
2023-01-30T04:39:13.685Z,20.15
2023-01-30T04:41:42.942Z,17.20
2023-01-30T04:44:09.919Z,16.98
2023-01-30T04:46:36.937Z,22.58
2023-01-30T04:49:03.966Z,18.90
2023-01-30T04:51:31.130Z,18.80
2023-01-30T04:53:58.118Z,16.85
2023-01-30T04:56:25.209Z,15.30
2023-01-30T04:58:52.182Z,16.77
2023-01-30T05:01:35.876Z,15.57
2023-01-30T05:04:03.763Z,17.70
2023-01-30T05:06:31.964Z,19.23
2023-01-30T05:08:59.683Z,18.95
2023-01-30T05:11:28.739Z,16.80
2023-01-30T05:13:55.909Z,18.83
2023-01-30T05:16:23.700Z,16.30
2023-01-30T05:18:51.148Z,17.40
2023-01-30T05:21:21.202Z,17.80
2023-01-30T05:23:48.232Z,19.98
2023-01-30T05:26:16.204Z,21.00
2023-01-30T05:28:43.757Z,19.63
2023-01-30T05:31:14.720Z,19.73
2023-01-30T05:33:42.062Z,24.00
2023-01-30T05:36:14.346Z,20.17
2023-01-30T05:38:43.349Z,22.38
2023-01-30T05:41:11.955Z,22.80
2023-01-30T05:43:39.121Z,23.67
2023-01-30T05:46:07.480Z,18.25
2023-01-30T05:48:34.509Z,17.02
2023-01-30T05:51:02.031Z,18.85
2023-01-30T05:53:32.356Z,20.20
2023-01-30T05:56:01.022Z,22.35
2023-01-30T05:58:28.753Z,19.55
2023-01-30T06:01:01.275Z,19.60
2023-01-30T06:03:28.647Z,16.23
2023-01-30T06:05:55.816Z,17.52
2023-01-30T06:08:23.141Z,19.60
2023-01-30T06:10:50.629Z,17.77
2023-01-30T06:13:17.986Z,21.30
2023-01-30T06:15:45.306Z,17.17
2023-01-30T06:18:12.464Z,23.15
2023-01-30T06:20:39.512Z,18.75
2023-01-30T06:23:06.493Z,20.42
2023-01-30T06:25:33.561Z,22.13
2023-01-30T06:28:00.559Z,18.55
2023-01-30T06:30:27.723Z,19.85
2023-01-30T06:32:54.759Z,17.17
2023-01-30T06:35:21.735Z,15.48
2023-01-30T06:37:48.797Z,17.67
2023-01-30T06:40:15.879Z,15.55
2023-01-30T06:42:47.457Z,20.95
2023-01-30T06:45:16.699Z,21.85
2023-01-30T06:47:53.639Z,18.05
2023-01-30T06:50:23.451Z,16.40
2023-01-30T06:52:52.341Z,20.27
2023-01-30T06:55:22.305Z,25.52
2023-01-30T06:57:50.226Z,17.48
2023-01-30T07:00:20.268Z,16.38
2023-01-30T07:02:47.517Z,18.73
2023-01-30T07:05:14.771Z,17.25
2023-01-30T07:07:42.034Z,16.33
2023-01-30T07:10:12.213Z,20.23
2023-01-30T07:12:39.489Z,16.17
2023-01-30T07:15:07.350Z,15.50
2023-01-30T07:17:34.548Z,20.08
2023-01-30T07:20:01.490Z,17.98
2023-01-30T07:22:28.560Z,19.27
2023-01-30T07:24:55.626Z,16.10
2023-01-30T07:27:22.710Z,18.27
2023-01-30T07:29:50.852Z,19.10
2023-01-30T07:32:20.157Z,16.98
2023-01-30T07:34:47.938Z,23.45
2023-01-30T07:37:15.799Z,18.50
2023-01-30T07:39:42.878Z,19.40
2023-01-30T07:42:09.973Z,16.42
2023-01-30T07:44:37.127Z,20.20
2023-01-30T07:47:04.231Z,19.70
2023-01-30T07:49:31.319Z,17.40
2023-01-30T07:51:58.476Z,19.98
2023-01-30T07:54:27.021Z,17.60
2023-01-30T07:56:54.078Z,18.55
2023-01-30T07:59:21.179Z,19.08
2023-01-30T08:01:48.245Z,18.38
2023-01-30T08:04:15.452Z,17.17
2023-01-30T08:06:42.598Z,20.17
2023-01-30T08:09:09.636Z,16.02
2023-01-30T08:11:36.831Z,16.38
2023-01-30T08:14:04.036Z,18.08
2023-01-30T08:16:32.667Z,17.33
2023-01-30T08:19:00.126Z,15.85
2023-01-30T08:21:27.238Z,17.33
2023-01-30T08:23:54.335Z,15.73
2023-01-30T08:26:21.738Z,19.05
2023-01-30T08:28:48.875Z,17.17
2023-01-30T08:31:17.648Z,18.98
2023-01-30T08:33:44.890Z,16.95
2023-01-30T08:36:12.029Z,17.65
2023-01-30T08:38:39.091Z,19.30
2023-01-30T08:41:08.494Z,16.33
2023-01-30T08:43:35.753Z,17.55
2023-01-30T08:46:03.024Z,18.25
2023-01-30T08:48:43.283Z,18.92
2023-01-30T08:51:15.970Z,17.80
2023-01-30T08:53:43.043Z,16.42
2023-01-30T08:56:10.163Z,18.95
2023-01-30T08:58:37.447Z,18.45
2023-01-30T09:01:07.726Z,13.65
2023-01-30T09:03:34.978Z,18.35
2023-01-30T09:06:02.097Z,16.42
2023-01-30T09:08:29.609Z,14.80
2023-01-30T09:11:01.568Z,25.55
2023-01-30T09:13:29.004Z,15.35
2023-01-30T09:15:56.039Z,15.02
2023-01-30T09:18:23.708Z,17.20
2023-01-30T09:20:52.671Z,17.83
2023-01-30T09:23:19.899Z,19.25
2023-01-30T09:25:47.402Z,15.35
2023-01-30T09:28:14.858Z,14.95
2023-01-30T09:30:42.224Z,16.77
2023-01-30T09:33:09.291Z,15.88
2023-01-30T09:35:36.339Z,15.85
2023-01-30T09:38:04.891Z,14.38
2023-01-30T09:40:36.868Z,12.77
2023-01-30T09:43:11.353Z,13.38
2023-01-30T09:45:49.315Z,12.32
2023-01-30T09:48:35.569Z,12.35
2023-01-30T09:51:26.214Z,12.63
2023-01-30T09:54:22.649Z,13.48
2023-01-30T09:57:21.896Z,15.50
2023-01-30T10:00:02.873Z,10.73
2023-01-30T10:02:43.639Z,13.75
2023-01-30T10:05:11.022Z,11.48
2023-01-30T10:07:52.942Z,11.65
2023-01-30T10:11:08.882Z,11.73
2023-01-30T10:14:01.393Z,9.68
2023-01-30T10:16:41.352Z,12.95
2023-01-30T10:19:40.659Z,11.80
2023-01-30T10:22:20.543Z,17.60
2023-01-30T10:25:06.623Z,10.07
2023-01-30T10:27:35.437Z,11.43
2023-01-30T10:30:06.692Z,12.88
2023-01-30T10:32:46.559Z,11.68
2023-01-30T10:35:22.083Z,16.38
2023-01-30T10:37:58.594Z,10.15
2023-01-30T10:40:36.419Z,13.18
2023-01-30T10:43:34.587Z,10.27
2023-01-30T10:46:10.826Z,11.95
2023-01-30T10:48:54.744Z,10.90
2023-01-30T10:51:25.222Z,13.30
2023-01-30T10:54:20.041Z,9.85
2023-01-30T10:57:03.366Z,11.10
2023-01-30T10:59:38.827Z,10.18
2023-01-30T11:02:34.656Z,8.80
2023-01-30T11:05:15.416Z,10.45
2023-01-30T11:07:46.305Z,9.43
2023-01-30T11:10:26.067Z,9.73
2023-01-30T11:13:19.851Z,8.40
2023-01-30T11:15:51.284Z,11.68
2023-01-30T11:19:17.089Z,9.65
2023-01-30T11:21:19.921Z,8.70
2023-01-30T11:23:47.039Z,9.02
2023-01-30T11:26:34.675Z,10.15
2023-01-30T11:29:26.829Z,8.23
2023-01-30T11:31:55.109Z,10.02
2023-01-30T11:34:24.620Z,9.52
2023-01-30T11:36:51.965Z,7.90
2023-01-30T11:39:23.351Z,9.95
2023-01-30T11:41:57.842Z,8.90
2023-01-30T11:44:36.968Z,12.18
2023-01-30T11:47:29.590Z,14.57
2023-01-30T11:50:16.910Z,9.77
2023-01-30T11:52:50.177Z,10.90
2023-01-30T11:55:20.744Z,7.43
2023-01-30T11:57:58.722Z,9.27
2023-01-30T12:00:38.374Z,8.55
2023-01-30T12:03:10.864Z,10.90
2023-01-30T12:05:43.125Z,9.45
2023-01-30T12:08:31.216Z,10.43
2023-01-30T12:11:03.729Z,11.88
2023-01-30T12:13:39.035Z,8.02
2023-01-30T12:16:30.115Z,12.30
2023-01-30T12:19:26.863Z,6.80
2023-01-30T12:22:13.210Z,6.80
2023-01-30T12:24:53.227Z,9.40
2023-01-30T12:27:27.191Z,6.60
2023-01-30T12:30:06.560Z,4.88
2023-01-30T12:32:35.556Z,6.68
2023-01-30T12:35:17.361Z,5.88
2023-01-30T12:38:16.080Z,5.88
2023-01-30T12:41:27.919Z,6.40
2023-01-30T12:44:18.363Z,3.83
2023-01-30T12:46:57.373Z,6.40
2023-01-30T12:49:44.009Z,4.50
2023-01-30T12:52:38.549Z,3.88
2023-01-30T12:55:27.197Z,4.47
2023-01-30T12:58:11.824Z,3.63
2023-01-30T13:00:56.397Z,6.15
2023-01-30T13:04:02.710Z,4.15
2023-01-30T13:06:45.050Z,6.50
2023-01-30T13:09:41.546Z,4.65
2023-01-30T13:12:25.808Z,4.38
2023-01-30T13:15:05.974Z,5.22
2023-01-30T13:17:47.340Z,5.90
2023-01-30T13:20:33.243Z,4.43
2023-01-30T13:23:41.657Z,5.53
2023-01-30T13:26:13.540Z,4.85
2023-01-30T13:28:46.859Z,5.45
2023-01-30T13:31:21.595Z,7.28
2023-01-30T13:33:52.696Z,4.32
2023-01-30T13:36:36.756Z,4.00
2023-01-30T13:39:10.706Z,4.60
2023-01-30T13:41:42.774Z,5.13
2023-01-30T13:44:23.607Z,3.20
2023-01-30T13:46:52.706Z,4.50
2023-01-30T13:49:30.721Z,5.45
2023-01-30T13:52:01.577Z,4.75
2023-01-30T13:54:37.463Z,5.28
2023-01-30T13:57:14.013Z,3.70
2023-01-30T13:59:49.943Z,4.38
2023-01-30T14:02:24.427Z,5.05
2023-01-30T14:04:56.293Z,4.63
2023-01-30T14:07:39.940Z,3.95
2023-01-30T14:10:10.097Z,5.53
2023-01-30T14:12:45.877Z,4.70
2023-01-30T14:15:16.720Z,5.47
2023-01-30T14:18:07.816Z,4.10
2023-01-30T14:20:52.614Z,8.30
2023-01-30T14:23:25.101Z,5.68
2023-01-30T14:25:56.887Z,5.20
2023-01-30T14:28:23.874Z,5.28
2023-01-30T14:30:54.190Z,8.70
2023-01-30T14:33:21.192Z,4.13
2023-01-30T14:36:09.469Z,3.83
2023-01-30T14:38:39.637Z,5.32
2023-01-30T14:41:09.660Z,7.45
2023-01-30T14:43:42.983Z,7.82
2023-01-30T14:46:32.847Z,9.40
2023-01-30T14:49:18.422Z,5.60
2023-01-30T14:51:49.856Z,5.55
2023-01-30T14:54:16.930Z,6.65
2023-01-30T14:56:55.638Z,4.28
2023-01-30T14:59:54.093Z,7.65
2023-01-30T15:02:35.023Z,6.78
2023-01-30T15:05:05.415Z,6.72
2023-01-30T15:07:44.593Z,6.78
2023-01-30T15:10:33.387Z,5.75
2023-01-30T15:13:17.897Z,6.50
2023-01-30T15:16:09.956Z,6.22
2023-01-30T15:18:55.685Z,6.03
2023-01-30T15:21:43.888Z,6.18
2023-01-30T15:24:37.674Z,6.30
2023-01-30T15:27:31.820Z,7.20
2023-01-30T15:30:01.976Z,6.57
2023-01-30T15:32:31.424Z,10.52
2023-01-30T15:35:24.660Z,6.65
2023-01-30T15:37:54.165Z,5.20
2023-01-30T15:40:23.377Z,6.45
2023-01-30T15:43:02.359Z,8.30
2023-01-30T15:45:56.628Z,6.82
2023-01-30T15:48:23.665Z,8.77
2023-01-30T15:50:56.693Z,9.75
2023-01-30T15:53:47.994Z,6.80
2023-01-30T15:56:20.692Z,5.68
2023-01-30T15:58:48.839Z,7.72
2023-01-30T16:01:21.250Z,7.25
2023-01-30T16:03:53.514Z,5.70
2023-01-30T16:06:33.184Z,6.50
2023-01-30T16:09:06.456Z,5.90
2023-01-30T16:11:39.690Z,11.20
2023-01-30T16:14:12.549Z,8.27
2023-01-30T16:16:47.548Z,6.82
2023-01-30T16:19:29.924Z,7.38
2023-01-30T16:22:00.980Z,6.43
2023-01-30T16:24:32.392Z,8.02
2023-01-30T16:27:08.924Z,7.22
2023-01-30T16:29:53.156Z,8.10
2023-01-30T16:32:32.409Z,9.98
2023-01-30T16:35:26.892Z,8.05
2023-01-30T16:37:57.473Z,7.35
2023-01-30T16:40:29.381Z,8.77
2023-01-30T16:42:59.953Z,6.00
2023-01-30T16:45:36.305Z,6.45
2023-01-30T16:48:24.402Z,9.85
2023-01-30T16:51:00.408Z,10.20
2023-01-30T16:53:31.198Z,6.93
2023-01-30T16:56:05.353Z,7.18
2023-01-30T16:58:40.342Z,7.65
2023-01-30T17:01:09.481Z,6.70
2023-01-30T17:03:43.241Z,7.40
2023-01-30T17:06:23.903Z,8.70
2023-01-30T17:08:58.364Z,7.88
2023-01-30T17:11:37.412Z,7.43
2023-01-30T17:14:21.134Z,6.05
2023-01-30T17:17:06.621Z,5.72
2023-01-30T17:19:36.575Z,6.18
2023-01-30T17:22:07.122Z,6.05
2023-01-30T17:24:36.284Z,6.45
2023-01-30T17:27:04.835Z,6.53
2023-01-30T17:29:42.332Z,7.43
2023-01-30T17:32:16.949Z,6.28
2023-01-30T17:34:44.396Z,5.13
2023-01-30T17:37:21.555Z,6.75
2023-01-30T17:39:50.085Z,6.55
2023-01-30T17:42:21.463Z,5.10
2023-01-30T17:44:49.218Z,5.00
2023-01-30T17:47:16.697Z,7.15
2023-01-30T17:49:44.825Z,7.00
2023-01-30T17:52:14.661Z,4.47
2023-01-30T17:54:42.681Z,6.68
2023-01-30T17:57:16.198Z,7.47
2023-01-30T17:59:44.022Z,5.68
2023-01-30T18:02:11.795Z,5.65
2023-01-30T18:04:42.469Z,4.95
2023-01-30T18:07:15.267Z,10.38
2023-01-30T18:09:43.392Z,6.60
2023-01-30T18:12:11.222Z,6.05
2023-01-30T18:14:38.955Z,8.15
2023-01-30T18:17:07.229Z,4.80
2023-01-30T18:19:35.207Z,5.13
2023-01-30T18:22:03.057Z,8.73
2023-01-30T18:24:31.224Z,6.15
2023-01-30T18:27:00.835Z,6.15
2023-01-30T18:29:30.435Z,4.72
2023-01-30T18:32:05.897Z,6.55
2023-01-30T18:34:35.792Z,5.75
2023-01-30T18:37:05.368Z,5.28
2023-01-30T18:39:33.812Z,7.07
2023-01-30T18:42:02.629Z,4.93
2023-01-30T18:44:30.925Z,5.43
2023-01-30T18:46:58.900Z,6.13
2023-01-30T18:49:28.792Z,4.75
2023-01-30T18:51:56.572Z,5.63
2023-01-30T18:54:24.606Z,7.63
2023-01-30T18:56:52.505Z,5.65
2023-01-30T18:59:20.006Z,4.78
2023-01-30T19:01:48.468Z,5.00
2023-01-30T19:04:18.774Z,3.95
2023-01-30T19:06:46.087Z,6.35
2023-01-30T19:09:15.894Z,6.03
2023-01-30T19:12:01.851Z,6.70
2023-01-30T19:14:29.510Z,7.03
2023-01-30T19:16:58.706Z,8.02
2023-01-30T19:19:30.878Z,5.55
2023-01-30T19:21:59.355Z,6.35
2023-01-30T19:24:29.031Z,4.20
2023-01-30T19:26:57.031Z,4.82
2023-01-30T19:29:27.849Z,4.20
2023-01-30T19:31:56.028Z,6.10
2023-01-30T19:34:24.049Z,8.40
2023-01-30T19:36:51.936Z,6.70
2023-01-30T19:39:22.109Z,4.60
2023-01-30T19:41:49.636Z,4.20
2023-01-30T19:44:17.153Z,4.47
2023-01-30T19:46:46.447Z,3.75
2023-01-30T19:49:14.513Z,3.63
2023-01-30T19:51:45.424Z,6.68
2023-01-30T19:54:13.334Z,4.57
2023-01-30T19:56:43.234Z,4.20
2023-01-30T19:59:15.584Z,3.67
2023-01-30T20:01:44.681Z,3.33
2023-01-30T20:04:12.881Z,3.15
2023-01-30T20:06:47.377Z,1.98
2023-01-30T20:09:19.799Z,2.47
2023-01-30T20:11:47.943Z,1.52
2023-01-30T20:14:15.942Z,1.30
2023-01-30T20:16:46.898Z,1.30
2023-01-30T20:19:17.390Z,3.30
2023-01-30T20:21:46.447Z,1.83
2023-01-30T20:24:15.779Z,2.90
2023-01-30T20:26:47.800Z,2.20
2023-01-30T20:29:17.726Z,3.72
2023-01-30T20:31:45.471Z,4.50
2023-01-30T20:34:15.489Z,3.13
2023-01-30T20:36:43.533Z,3.95
2023-01-30T20:39:13.816Z,6.00
2023-01-30T20:41:43.762Z,3.47
2023-01-30T20:44:13.075Z,4.45
2023-01-30T20:46:44.385Z,2.97
2023-01-30T20:49:21.002Z,3.80
2023-01-30T20:51:51.394Z,3.97
2023-01-30T20:54:21.559Z,2.25
2023-01-30T20:56:51.935Z,1.50
2023-01-30T20:59:24.619Z,1.90
2023-01-30T21:01:53.025Z,1.60
2023-01-30T21:04:22.299Z,0.90
2023-01-30T21:06:50.191Z,1.20
2023-01-30T21:09:23.714Z,1.08
2023-01-30T21:11:53.279Z,2.75
2023-01-30T21:14:20.878Z,1.98
2023-01-30T21:16:48.539Z,1.10
2023-01-30T21:19:17.933Z,0.82
2023-01-30T21:21:51.601Z,1.23
2023-01-30T21:24:25.161Z,1.20
2023-01-30T21:26:53.660Z,1.13
2023-01-30T21:29:23.676Z,2.00
2023-01-30T21:31:51.585Z,1.45
2023-01-30T21:34:19.166Z,2.42
2023-01-30T21:37:09.623Z,2.10
2023-01-30T21:39:55.472Z,2.25
2023-01-30T21:42:41.382Z,2.22
2023-01-30T21:45:08.972Z,3.47
2023-01-30T21:47:36.893Z,2.60
2023-01-30T21:50:04.372Z,2.80
2023-01-30T21:52:36.709Z,2.90
2023-01-30T21:55:04.081Z,6.47
2023-01-30T21:57:31.106Z,3.30
2023-01-30T21:59:58.183Z,2.40
2023-01-30T22:02:25.202Z,1.83
2023-01-30T22:04:52.304Z,2.55
2023-01-30T22:07:19.387Z,2.33
2023-01-30T22:09:46.415Z,2.38
2023-01-30T22:12:13.419Z,1.90
2023-01-30T22:14:40.457Z,1.40
2023-01-30T22:17:07.557Z,0.70
2023-01-30T22:19:35.927Z,0.70
2023-01-30T22:22:03.989Z,0.90
2023-01-30T22:24:31.517Z,0.80
2023-01-30T22:26:58.565Z,1.10
2023-01-30T22:29:25.542Z,1.25
2023-01-30T22:31:53.557Z,0.90
2023-01-30T22:34:20.762Z,1.25
2023-01-30T22:36:50.822Z,2.35
2023-01-30T22:39:18.158Z,1.85
2023-01-30T22:41:45.182Z,3.13
2023-01-30T22:44:12.231Z,2.03
2023-01-30T22:46:40.262Z,0.95
2023-01-30T22:49:09.541Z,1.10
2023-01-30T22:51:40.023Z,1.88
2023-01-30T22:54:11.663Z,0.52
2023-01-30T22:56:40.907Z,1.65
2023-01-30T22:59:08.882Z,0.80
2023-01-30T23:01:38.434Z,0.75
2023-01-30T23:04:17.658Z,0.77
2023-01-30T23:06:45.995Z,1.25
2023-01-30T23:09:16.999Z,1.65
2023-01-30T23:12:10.027Z,0.70
2023-01-30T23:14:38.002Z,2.15
2023-01-30T23:17:25.573Z,0.90
2023-01-30T23:19:53.835Z,1.15
2023-01-30T23:22:21.108Z,0.90
2023-01-30T23:24:48.967Z,2.65
2023-01-30T23:27:16.020Z,1.13
2023-01-30T23:29:43.231Z,1.17
2023-01-30T23:32:10.301Z,1.10
2023-01-30T23:34:37.706Z,0.80
2023-01-30T23:37:05.037Z,0.80
2023-01-30T23:39:32.091Z,3.85
2023-01-30T23:41:59.172Z,2.00
2023-01-30T23:44:26.191Z,0.70
2023-01-30T23:46:53.214Z,0.98
2023-01-30T23:49:20.284Z,2.53
2023-01-30T23:51:47.346Z,1.25
2023-01-30T23:54:14.913Z,1.35
2023-01-30T23:56:44.039Z,1.15
2023-01-30T23:59:12.433Z,0.85
